Time;durP1;ratioP1;P1;durP2;ratioP2;P2;SDS_P1;SDS_P2;PMS_P1;PMS_P2;Temp;Humidity;BMP_temperature;BMP_pressure;BME280_temperature;BME280_humidity;BME280_pressure;Samples;Min_cycle;Max_cycle;Signal;HPM_P1;HPM_P2
2022/07/08 00:01:51;;;;;;;4.18;2.30;;;;;;;;;;10867879;23;20386;-84
2022/07/08 00:06:51;;;;;;;4.40;2.25;;;;;;;;;;10390028;28;20061;-87
2022/07/08 00:11:53;;;;;;;7.88;3.45;;;;;;;;;;11045493;23;20133;-84
2022/07/08 00:16:55;;;;;;;6.83;2.73;;;;;;;;;;10362961;28;20069;-82
2022/07/08 00:21:56;;;;;;;5.28;2.45;;;;;;;;;;10382912;28;20042;-80
2022/07/08 00:26:59;;;;;;;5.57;2.40;;;;;;;;;;10348792;28;20105;-81
2022/07/08 00:32:02;;;;;;;6.18;2.55;;;;;;;;;;10356261;28;20073;-81
2022/07/08 00:37:04;;;;;;;6.50;2.43;;;;;;;;;;10350784;28;20056;-80
2022/07/08 00:42:06;;;;;;;6.13;2.20;;;;;;;;;;10386039;28;20045;-83
2022/07/08 00:47:07;;;;;;;6.55;2.47;;;;;;;;;;10367637;28;20117;-80
2022/07/08 00:52:09;;;;;;;4.93;2.03;;;;;;;;;;10348439;28;20105;-80
2022/07/08 00:57:12;;;;;;;3.23;2.00;;;;;;;;;;10368706;28;20472;-80
2022/07/08 01:02:16;;;;;;;4.82;2.22;;;;;;;;;;10354857;28;20024;-87
2022/07/08 01:07:17;;;;;;;5.10;3.07;;;;;;;;;;10355779;28;20065;-82
2022/07/08 01:12:17;;;;;;;7.60;2.60;;;;;;;;;;10379405;28;20389;-83
2022/07/08 01:17:18;;;;;;;7.28;2.55;;;;;;;;;;10385902;28;20068;-83
2022/07/08 01:22:19;;;;;;;5.97;2.05;;;;;;;;;;10391375;28;20080;-83
2022/07/08 01:27:19;;;;;;;3.93;2.10;;;;;;;;;;10386088;28;20161;-83
2022/07/08 01:32:19;;;;;;;5.55;2.30;;;;;;;;;;10360224;28;20273;-81
2022/07/08 01:37:21;;;;;;;5.37;2.27;;;;;;;;;;10369986;28;20060;-81
2022/07/08 01:42:21;;;;;;;6.00;2.40;;;;;;;;;;10379035;28;20323;-79
2022/07/08 01:47:22;;;;;;;6.20;2.70;;;;;;;;;;10361580;28;20053;-80
2022/07/08 01:52:22;;;;;;;7.45;2.35;;;;;;;;;;10394065;28;20048;-82
2022/07/08 01:57:26;;;;;;;6.75;2.55;;;;;;;;;;10391570;28;20061;-83
2022/07/08 02:02:26;;;;;;;5.40;2.53;;;;;;;;;;10382758;28;20046;-82
2022/07/08 02:07:31;;;;;;;8.10;2.70;;;;;;;;;;10373414;28;20046;-83
2022/07/08 02:12:33;;;;;;;7.93;2.65;;;;;;;;;;10394446;28;20069;-81
2022/07/08 02:17:36;;;;;;;4.00;2.30;;;;;;;;;;10388083;28;20065;-83
2022/07/08 02:22:36;;;;;;;6.50;2.70;;;;;;;;;;10409548;28;20038;-81
2022/07/08 02:27:37;;;;;;;5.18;2.45;;;;;;;;;;10411478;28;20025;-83
2022/07/08 02:32:37;;;;;;;7.20;2.70;;;;;;;;;;10425780;28;20052;-82
2022/07/08 02:37:39;;;;;;;5.32;3.03;;;;;;;;;;10428963;28;20367;-81
2022/07/08 02:42:40;;;;;;;5.40;3.10;;;;;;;;;;10430158;28;20052;-80
2022/07/08 02:47:40;;;;;;;7.13;2.50;;;;;;;;;;10420430;28;20137;-83
2022/07/08 02:52:41;;;;;;;6.93;2.43;;;;;;;;;;10412233;28;20600;-82
2022/07/08 02:57:41;;;;;;;4.95;2.70;;;;;;;;;;10419125;28;20392;-82
2022/07/08 03:02:42;;;;;;;5.80;3.00;;;;;;;;;;10393489;28;20041;-82
2022/07/08 03:07:43;;;;;;;5.65;2.75;;;;;;;;;;10400086;28;20054;-83
2022/07/08 03:12:45;;;;;;;4.70;2.53;;;;;;;;;;10423070;28;20052;-83
2022/07/08 03:17:52;;;;;;;4.88;2.90;;;;;;;;;;10412853;28;20057;-83
2022/07/08 03:22:53;;;;;;;6.85;2.78;;;;;;;;;;10414839;28;20448;-83
2022/07/08 03:27:53;;;;;;;4.97;2.65;;;;;;;;;;10370160;28;20072;-81
2022/07/08 03:32:54;;;;;;;5.10;2.83;;;;;;;;;;10387888;28;20057;-82
2022/07/08 03:37:57;;;;;;;4.97;2.60;;;;;;;;;;10361334;28;20113;-83
2022/07/08 03:42:58;;;;;;;5.00;2.28;;;;;;;;;;10342001;28;20069;-86
2022/07/08 03:48:00;;;;;;;4.57;2.70;;;;;;;;;;10391375;28;20049;-81
2022/07/08 03:53:02;;;;;;;5.03;2.33;;;;;;;;;;10388695;28;20034;-80
2022/07/08 03:58:02;;;;;;;2.53;1.93;;;;;;;;;;10368410;28;20056;-81
2022/07/08 04:03:03;;;;;;;7.55;2.33;;;;;;;;;;10364319;28;20857;-81
2022/07/08 04:08:04;;;;;;;3.53;1.98;;;;;;;;;;10387125;28;20048;-84
2022/07/08 04:13:07;;;;;;;6.30;2.30;;;;;;;;;;10384420;28;20064;-81
2022/07/08 04:18:07;;;;;;;5.57;2.50;;;;;;;;;;10394139;28;20068;-82
2022/07/08 04:23:09;;;;;;;5.00;2.42;;;;;;;;;;10425026;28;20108;-82
2022/07/08 04:28:09;;;;;;;3.90;1.75;;;;;;;;;;10385143;28;20061;-85
2022/07/08 04:33:11;;;;;;;5.95;2.80;;;;;;;;;;10415374;28;20132;-83
2022/07/08 04:38:13;;;;;;;5.83;2.17;;;;;;;;;;10420744;28;20053;-83
2022/07/08 04:43:14;;;;;;;6.63;2.42;;;;;;;;;;10408151;28;20499;-81
2022/07/08 04:48:14;;;;;;;5.07;2.30;;;;;;;;;;10393988;28;20101;-77
2022/07/08 04:53:14;;;;;;;4.43;2.35;;;;;;;;;;10397374;28;20289;-76
2022/07/08 04:58:15;;;;;;;4.63;2.40;;;;;;;;;;10394376;28;20084;-77
2022/07/08 05:03:15;;;;;;;5.55;2.30;;;;;;;;;;10383932;28;20295;-77
2022/07/08 05:08:17;;;;;;;4.20;2.30;;;;;;;;;;10378273;28;20073;-78
2022/07/08 05:13:17;;;;;;;4.25;2.42;;;;;;;;;;10379706;28;20289;-79
2022/07/08 05:18:19;;;;;;;5.50;2.15;;;;;;;;;;10368034;28;20081;-78
2022/07/08 05:23:20;;;;;;;4.43;2.50;;;;;;;;;;10384560;28;20412;-78
2022/07/08 05:28:20;;;;;;;5.43;2.60;;;;;;;;;;10371683;28;20056;-77
2022/07/08 05:33:20;;;;;;;6.03;2.45;;;;;;;;;;10367905;28;20057;-77
2022/07/08 05:38:21;;;;;;;6.38;2.47;;;;;;;;;;10374816;28;20205;-78
2022/07/08 05:43:21;;;;;;;4.97;2.28;;;;;;;;;;10373126;28;20376;-78
2022/07/08 05:48:22;;;;;;;8.10;2.60;;;;;;;;;;10375346;28;20057;-79
2022/07/08 05:53:22;;;;;;;10.10;2.67;;;;;;;;;;10405346;28;20296;-78
2022/07/08 05:58:22;;;;;;;6.67;2.30;;;;;;;;;;10373585;28;20121;-79
2022/07/08 06:03:23;;;;;;;6.43;2.35;;;;;;;;;;10383010;28;20113;-78
2022/07/08 06:08:23;;;;;;;4.60;2.23;;;;;;;;;;10386650;28;20049;-79
2022/07/08 06:13:23;;;;;;;5.15;2.22;;;;;;;;;;10373515;28;20268;-78
2022/07/08 06:18:24;;;;;;;4.63;2.07;;;;;;;;;;10385709;28;20049;-80
2022/07/08 06:23:24;;;;;;;4.80;2.35;;;;;;;;;;10389823;28;20264;-76
2022/07/08 06:28:25;;;;;;;6.37;2.10;;;;;;;;;;10405425;28;20057;-79
2022/07/08 06:33:26;;;;;;;5.75;2.45;;;;;;;;;;10367719;28;20041;-78
2022/07/08 06:38:26;;;;;;;5.68;2.05;;;;;;;;;;10390194;28;20058;-78
2022/07/08 06:43:26;;;;;;;5.20;1.83;;;;;;;;;;10387295;28;20101;-80
2022/07/08 06:48:27;;;;;;;3.80;2.07;;;;;;;;;;10417752;28;20294;-79
2022/07/08 06:54:34;;;;;;;6.88;2.28;;;;;;;;;;10437321;28;20124;-77
2022/07/08 06:58:47;;;;;;;6.20;2.00;;;;;;;;;;10402387;28;20056;-78
2022/07/08 07:03:48;;;;;;;6.40;2.13;;;;;;;;;;10409700;28;20046;-77
2022/07/08 07:08:48;;;;;;;6.70;2.00;;;;;;;;;;10400500;28;20424;-77
2022/07/08 07:13:48;;;;;;;5.20;2.10;;;;;;;;;;10391673;28;20053;-77
2022/07/08 07:18:52;;;;;;;5.53;2.33;;;;;;;;;;10401876;28;20466;-77
2022/07/08 07:23:52;;;;;;;6.95;1.70;;;;;;;;;;10365239;28;20068;-78
2022/07/08 07:28:52;;;;;;;5.60;2.17;;;;;;;;;;10373781;28;20112;-78
2022/07/08 07:33:53;;;;;;;4.70;2.23;;;;;;;;;;10399537;28;20316;-77
2022/07/08 07:38:54;;;;;;;5.10;2.23;;;;;;;;;;10415037;28;20276;-81
2022/07/08 07:43:54;;;;;;;4.13;1.70;;;;;;;;;;10406116;28;20305;-79
2022/07/08 07:48:54;;;;;;;5.20;1.80;;;;;;;;;;10412855;28;20041;-76
2022/07/08 07:53:55;;;;;;;2.85;1.80;;;;;;;;;;10404416;28;20928;-77
2022/07/08 07:58:55;;;;;;;3.20;1.73;;;;;;;;;;10378179;28;20057;-76
2022/07/08 08:03:56;;;;;;;5.38;1.85;;;;;;;;;;10386404;28;20285;-76
2022/07/08 08:08:57;;;;;;;3.93;2.30;;;;;;;;;;10362638;28;20411;-77
2022/07/08 08:13:58;;;;;;;4.32;2.30;;;;;;;;;;10367251;28;20384;-78
2022/07/08 08:18:58;;;;;;;41.70;27.20;;;;;;;;;;10389472;28;20049;-78
2022/07/08 08:23:58;;;;;;;4.38;2.05;;;;;;;;;;10381975;28;20077;-77
2022/07/08 08:28:59;;;;;;;7.37;2.47;;;;;;;;;;10370187;28;20104;-78
2022/07/08 08:34:00;;;;;;;6.32;2.55;;;;;;;;;;10390442;28;20046;-76
2022/07/08 08:39:00;;;;;;;5.72;2.13;;;;;;;;;;10396105;28;20041;-77
2022/07/08 08:44:01;;;;;;;4.45;1.90;;;;;;;;;;10376327;28;20074;-77
2022/07/08 08:49:34;;;;;;;4.70;1.88;;;;;;;;;;10390803;28;20435;-75
2022/07/08 08:54:36;;;;;;;4.25;1.88;;;;;;;;;;10387128;28;20111;-76
2022/07/08 08:59:37;;;;;;;5.18;2.33;;;;;;;;;;10374660;28;20132;-80
2022/07/08 09:04:37;;;;;;;4.90;2.20;;;;;;;;;;10372953;28;20041;-77
2022/07/08 09:09:38;;;;;;;6.22;2.17;;;;;;;;;;10380385;28;20069;-77
2022/07/08 09:14:48;;;;;;;3.23;1.67;;;;;;;;;;10381289;28;20088;-76
2022/07/08 09:19:49;;;;;;;4.50;2.28;;;;;;;;;;10366100;28;20079;-77
2022/07/08 09:24:49;;;;;;;4.68;1.95;;;;;;;;;;10371195;28;20038;-76
2022/07/08 09:29:57;;;;;;;3.95;2.03;;;;;;;;;;10388819;28;20042;-78
2022/07/08 09:34:58;;;;;;;5.57;1.80;;;;;;;;;;10377073;28;20046;-76
2022/07/08 09:39:58;;;;;;;5.60;1.52;;;;;;;;;;10367042;28;20444;-77
2022/07/08 09:44:58;;;;;;;7.67;1.70;;;;;;;;;;10373138;28;20045;-77
2022/07/08 09:50:00;;;;;;;3.67;1.83;;;;;;;;;;10379273;28;20396;-77
2022/07/08 09:55:02;;;;;;;5.53;1.43;;;;;;;;;;10369313;28;20060;-80
2022/07/08 10:00:03;;;;;;;3.07;1.60;;;;;;;;;;10384021;28;20046;-77
2022/07/08 10:05:13;;;;;;;3.85;1.70;;;;;;;;;;10382605;28;20089;-78
2022/07/08 10:10:13;;;;;;;5.30;1.73;;;;;;;;;;10397345;28;20050;-78
2022/07/08 10:15:14;;;;;;;3.67;1.40;;;;;;;;;;10403552;28;20515;-79
2022/07/08 10:20:15;;;;;;;3.30;1.52;;;;;;;;;;10387230;28;20049;-77
2022/07/08 10:25:17;;;;;;;5.00;1.70;;;;;;;;;;10385086;28;20507;-78
2022/07/08 10:30:18;;;;;;;6.13;1.73;;;;;;;;;;10389346;28;20038;-78
2022/07/08 10:35:24;;;;;;;3.78;2.13;;;;;;;;;;10421591;28;20053;-83
2022/07/08 10:40:43;;;;;;;5.70;2.17;;;;;;;;;;10396551;28;20049;-79
2022/07/08 10:45:57;;;;;;;5.43;1.80;;;;;;;;;;10393659;28;20665;-78
2022/07/08 10:50:57;;;;;;;4.50;1.70;;;;;;;;;;10394667;28;20102;-81
2022/07/08 10:55:59;;;;;;;4.90;1.60;;;;;;;;;;10402804;28;20148;-78
2022/07/08 11:01:28;;;;;;;3.83;1.30;;;;;;;;;;10407965;28;20391;-80
2022/07/08 11:06:36;;;;;;;3.90;1.42;;;;;;;;;;10382000;28;20045;-80
2022/07/08 11:11:37;;;;;;;4.50;1.80;;;;;;;;;;10396304;28;20049;-79
2022/07/08 11:16:37;;;;;;;4.60;1.58;;;;;;;;;;10414838;28;20077;-87
2022/07/08 11:21:39;;;;;;;5.97;1.90;;;;;;;;;;10408102;28;20054;-81
2022/07/08 11:26:40;;;;;;;3.83;1.70;;;;;;;;;;10384362;28;20334;-83
2022/07/08 11:31:41;;;;;;;4.43;1.98;;;;;;;;;;10380192;28;20045;-79
2022/07/08 11:36:52;;;;;;;3.90;1.63;;;;;;;;;;10369206;28;20061;-79
2022/07/08 11:41:56;;;;;;;4.55;1.70;;;;;;;;;;10382687;28;20393;-80
2022/07/08 11:46:57;;;;;;;3.33;1.50;;;;;;;;;;10391230;28;20038;-79
2022/07/08 11:51:57;;;;;;;4.32;1.58;;;;;;;;;;10400833;28;20057;-79
2022/07/08 11:56:59;;;;;;;3.90;1.50;;;;;;;;;;10394723;28;20132;-79
2022/07/08 12:02:00;;;;;;;3.15;2.22;;;;;;;;;;10415624;28;20038;-78
2022/07/08 12:07:01;;;;;;;3.10;2.17;;;;;;;;;;10414376;28;20056;-79
2022/07/08 12:12:06;;;;;;;3.70;1.60;;;;;;;;;;10413551;28;20060;-77
2022/07/08 12:17:07;;;;;;;2.53;1.35;;;;;;;;;;10389987;28;20107;-81
2022/07/08 12:22:38;;;;;;;3.33;1.40;;;;;;;;;;10381337;28;20467;-77
2022/07/08 12:27:38;;;;;;;2.88;1.63;;;;;;;;;;10401166;28;20744;-77
2022/07/08 12:32:45;;;;;;;6.20;1.70;;;;;;;;;;10377766;28;20144;-78
2022/07/08 12:37:46;;;;;;;2.85;1.20;;;;;;;;;;10391789;28;20084;-78
2022/07/08 12:43:02;;;;;;;1.98;1.48;;;;;;;;;;10377113;28;20076;-78
2022/07/08 12:48:03;;;;;;;2.75;1.65;;;;;;;;;;10394241;28;20056;-79
2022/07/08 12:53:03;;;;;;;4.45;1.70;;;;;;;;;;10367357;28;20354;-78
2022/07/08 12:58:04;;;;;;;2.70;1.30;;;;;;;;;;10367350;28;20104;-77
2022/07/08 13:03:04;;;;;;;3.17;1.30;;;;;;;;;;10401323;28;20448;-79
2022/07/08 13:08:06;;;;;;;2.13;1.50;;;;;;;;;;10395838;28;20342;-80
2022/07/08 13:13:07;;;;;;;4.63;3.60;;;;;;;;;;10370556;28;20289;-79
2022/07/08 13:18:08;;;;;;;2.63;1.33;;;;;;;;;;10397239;28;20053;-78
2022/07/08 13:23:08;;;;;;;2.60;1.30;;;;;;;;;;10392214;28;20531;-79
2022/07/08 13:28:09;;;;;;;2.70;1.40;;;;;;;;;;10388661;28;20307;-79
2022/07/08 13:33:09;;;;;;;3.20;1.50;;;;;;;;;;10375783;28;20045;-77
2022/07/08 13:38:10;;;;;;;2.10;1.30;;;;;;;;;;10353562;28;20355;-78
2022/07/08 13:43:10;;;;;;;1.70;1.10;;;;;;;;;;10386180;28;20080;-82
2022/07/08 13:48:10;;;;;;;4.07;1.38;;;;;;;;;;10387124;28;20310;-82
2022/07/08 13:53:11;;;;;;;9.60;6.93;;;;;;;;;;10390888;28;20049;-81
2022/07/08 13:58:11;;;;;;;2.22;1.30;;;;;;;;;;10383480;28;20061;-76
2022/07/08 14:03:12;;;;;;;2.97;2.10;;;;;;;;;;10397658;28;20539;-80
2022/07/08 14:08:12;;;;;;;2.85;1.30;;;;;;;;;;10394186;28;20284;-78
2022/07/08 14:13:14;;;;;;;2.53;1.17;;;;;;;;;;10403671;28;20056;-79
2022/07/08 14:18:14;;;;;;;2.90;1.27;;;;;;;;;;10419250;28;20042;-78
2022/07/08 14:23:15;;;;;;;3.67;1.47;;;;;;;;;;10407164;28;20048;-79
2022/07/08 14:28:15;;;;;;;1.83;1.33;;;;;;;;;;10408391;28;20319;-78
2022/07/08 14:33:17;;;;;;;2.63;1.08;;;;;;;;;;10406383;28;20206;-80
2022/07/08 14:38:17;;;;;;;2.60;1.30;;;;;;;;;;10379970;28;20125;-81
2022/07/08 14:43:18;;;;;;;3.40;1.40;;;;;;;;;;10402399;28;20326;-80
2022/07/08 14:48:20;;;;;;;1.73;1.02;;;;;;;;;;10401767;28;20125;-82
2022/07/08 14:53:22;;;;;;;2.60;1.20;;;;;;;;;;10407999;28;20057;-79
2022/07/08 14:58:22;;;;;;;2.47;1.55;;;;;;;;;;10405517;28;20054;-81
2022/07/08 15:03:23;;;;;;;2.08;1.15;;;;;;;;;;10415357;28;20091;-80
2022/07/08 15:08:25;;;;;;;1.80;1.00;;;;;;;;;;10384597;28;20033;-79
2022/07/08 15:13:30;;;;;;;0.95;0.80;;;;;;;;;;10398198;28;20300;-82
2022/07/08 15:18:30;;;;;;;1.45;1.13;;;;;;;;;;10398426;28;20112;-80
2022/07/08 15:23:31;;;;;;;3.08;1.30;;;;;;;;;;10406015;28;20412;-81
2022/07/08 15:28:32;;;;;;;1.10;1.00;;;;;;;;;;10407270;28;20051;-81
2022/07/08 15:33:32;;;;;;;2.20;1.30;;;;;;;;;;10417800;28;20041;-79
2022/07/08 15:38:35;;;;;;;1.27;1.00;;;;;;;;;;10400919;28;20042;-81
2022/07/08 15:43:37;;;;;;;2.22;1.08;;;;;;;;;;10389353;28;20065;-84
2022/07/08 15:48:39;;;;;;;1.67;1.00;;;;;;;;;;10413776;28;20042;-83
2022/07/08 15:53:39;;;;;;;2.88;1.10;;;;;;;;;;10409842;28;20277;-82
2022/07/08 15:58:40;;;;;;;1.87;1.27;;;;;;;;;;10386991;28;20060;-80
2022/07/08 16:03:42;;;;;;;2.23;1.30;;;;;;;;;;10402663;28;20049;-81
2022/07/08 16:08:42;;;;;;;2.40;1.35;;;;;;;;;;10388329;28;20056;-81
2022/07/08 16:13:46;;;;;;;2.88;1.05;;;;;;;;;;10402874;28;20045;-81
2022/07/08 16:18:48;;;;;;;3.47;1.40;;;;;;;;;;10378929;28;20058;-82
2022/07/08 16:23:48;;;;;;;1.65;1.10;;;;;;;;;;10400735;28;20128;-80
2022/07/08 16:28:49;;;;;;;4.22;1.40;;;;;;;;;;10382828;28;20088;-83
2022/07/08 16:33:50;;;;;;;3.50;1.55;;;;;;;;;;10404949;28;20643;-80
2022/07/08 16:38:52;;;;;;;2.45;1.42;;;;;;;;;;10403217;28;20042;-80
2022/07/08 16:43:52;;;;;;;2.40;1.83;;;;;;;;;;10390981;28;20037;-81
2022/07/08 16:48:56;;;;;;;2.47;1.75;;;;;;;;;;10400817;28;20027;-83
2022/07/08 16:54:11;;;;;;;3.53;2.33;;;;;;;;;;10386135;28;20054;-83
2022/07/08 16:59:11;;;;;;;2.85;1.65;;;;;;;;;;10366366;28;20046;-79
2022/07/08 17:04:13;;;;;;;2.28;1.30;;;;;;;;;;10376325;28;20397;-80
2022/07/08 17:09:13;;;;;;;2.20;1.27;;;;;;;;;;10343965;28;20077;-80
2022/07/08 17:14:17;;;;;;;2.03;1.30;;;;;;;;;;10346780;28;20049;-79
2022/07/08 17:19:21;;;;;;;1.80;1.30;;;;;;;;;;10382852;28;20080;-80
2022/07/08 17:24:25;;;;;;;2.80;1.80;;;;;;;;;;10379525;28;20069;-83
2022/07/08 17:34:50;;;;;;;2.15;1.30;;;;;;;;;;10403857;28;20057;-83
2022/07/08 17:39:51;;;;;;;3.70;1.77;;;;;;;;;;10374690;28;20432;-81
2022/07/08 17:44:52;;;;;;;3.08;1.58;;;;;;;;;;10375011;28;20110;-82
2022/07/08 17:49:53;;;;;;;3.15;1.20;;;;;;;;;;10363825;28;20038;-81
2022/07/08 17:54:53;;;;;;;3.50;1.50;;;;;;;;;;10393087;28;20049;-82
2022/07/08 17:59:54;;;;;;;3.03;1.77;;;;;;;;;;10362840;28;20455;-81
2022/07/08 18:04:56;;;;;;;;;;;;;;;;;;10364477;28;20045;-79
2022/07/08 18:09:58;;;;;;;3.03;1.45;;;;;;;;;;10402031;28;20125;-82
2022/07/08 18:14:58;;;;;;;1.70;1.20;;;;;;;;;;10432793;28;20069;-81
2022/07/08 18:19:59;;;;;;;4.60;3.50;;;;;;;;;;10423433;28;20045;-78
2022/07/08 18:24:59;;;;;;;9.60;7.03;;;;;;;;;;10412652;28;20080;-78
2022/07/08 18:30:00;;;;;;;2.93;2.20;;;;;;;;;;10403273;28;20157;-77
2022/07/08 18:35:00;;;;;;;4.75;3.10;;;;;;;;;;10417559;28;20488;-78
2022/07/08 18:40:02;;;;;;;3.27;1.93;;;;;;;;;;10418023;28;20437;-78
2022/07/08 18:45:02;;;;;;;4.38;2.00;;;;;;;;;;10418892;28;20045;-76
2022/07/08 18:50:03;;;;;;;4.32;2.13;;;;;;;;;;10397962;28;20045;-78
2022/07/08 18:55:03;;;;;;;3.30;1.90;;;;;;;;;;10398205;28;20057;-79
2022/07/08 19:00:04;;;;;;;4.75;2.78;;;;;;;;;;10408506;28;20041;-79
2022/07/08 19:05:07;;;;;;;4.55;2.45;;;;;;;;;;10380619;28;20068;-79
2022/07/08 19:10:08;;;;;;;4.70;2.60;;;;;;;;;;10389712;28;20041;-80
2022/07/08 19:15:09;;;;;;;4.35;2.20;;;;;;;;;;10373182;28;20057;-79
2022/07/08 19:20:10;;;;;;;3.00;1.45;;;;;;;;;;10400896;28;20597;-79
2022/07/08 19:25:11;;;;;;;3.80;2.05;;;;;;;;;;10366246;28;20173;-77
2022/07/08 19:30:11;;;;;;;5.82;3.38;;;;;;;;;;10366060;28;20097;-79
2022/07/08 19:35:12;;;;;;;3.38;2.60;;;;;;;;;;10382134;28;20678;-78
2022/07/08 19:40:13;;;;;;;4.32;2.40;;;;;;;;;;10400000;28;20050;-78
2022/07/08 19:45:16;;;;;;;2.50;2.20;;;;;;;;;;10386790;28;20136;-78
2022/07/08 19:50:16;;;;;;;;;;;;;;;;;;10398288;28;20037;-78
2022/07/08 19:55:17;;;;;;;3.22;1.90;;;;;;;;;;10379687;28;19932;-80
2022/07/08 20:00:17;;;;;;;3.43;1.90;;;;;;;;;;10383515;28;20042;-81
2022/07/08 20:05:21;;;;;;;3.58;2.00;;;;;;;;;;10384942;28;20280;-82
2022/07/08 20:10:21;;;;;;;3.33;1.80;;;;;;;;;;10406484;28;20050;-77
2022/07/08 20:15:22;;;;;;;2.15;1.83;;;;;;;;;;10411594;28;20049;-76
2022/07/08 20:20:22;;;;;;;4.60;2.27;;;;;;;;;;10408630;28;20263;-77
2022/07/08 20:25:26;;;;;;;7.67;4.57;;;;;;;;;;10414939;28;20061;-79
2022/07/08 20:30:28;;;;;;;3.53;2.33;;;;;;;;;;10388019;28;20472;-78
2022/07/08 20:35:29;;;;;;;;;;;;;;;;;;10379845;28;20133;-78
2022/07/08 20:40:37;;;;;;;3.03;1.92;;;;;;;;;;10393692;28;19917;-80
2022/07/08 20:45:37;;;;;;;2.90;2.28;;;;;;;;;;10386427;28;20051;-79
2022/07/08 20:50:38;;;;;;;3.20;2.20;;;;;;;;;;10358855;28;20045;-78
2022/07/08 20:55:41;;;;;;;2.77;2.27;;;;;;;;;;10398881;28;20129;-78
2022/07/08 21:00:41;;;;;;;3.97;2.35;;;;;;;;;;10399022;28;20046;-79
2022/07/08 21:05:42;;;;;;;5.60;3.58;;;;;;;;;;10376465;28;20038;-80
2022/07/08 21:10:44;;;;;;;4.45;3.08;;;;;;;;;;10413153;28;20060;-80
2022/07/08 21:15:45;;;;;;;3.45;2.50;;;;;;;;;;10409741;28;20046;-80
2022/07/08 21:20:46;;;;;;;4.70;3.80;;;;;;;;;;10401620;28;20519;-79
2022/07/08 21:25:46;;;;;;;4.20;3.23;;;;;;;;;;10410462;28;20312;-78
2022/07/08 21:30:47;;;;;;;4.30;2.88;;;;;;;;;;10391691;28;20277;-80
2022/07/08 21:35:47;;;;;;;3.53;3.10;;;;;;;;;;10405995;28;20124;-79
2022/07/08 21:40:49;;;;;;;3.88;3.00;;;;;;;;;;10404284;28;20572;-78
2022/07/08 21:45:50;;;;;;;2.38;2.17;;;;;;;;;;10399445;28;20041;-78
2022/07/08 21:50:50;;;;;;;3.47;2.70;;;;;;;;;;10393347;28;20099;-77
2022/07/08 21:55:52;;;;;;;3.87;2.70;;;;;;;;;;10410499;28;20504;-80
2022/07/08 22:00:52;;;;;;;5.37;4.47;;;;;;;;;;10386596;28;20057;-81
2022/07/08 22:05:53;;;;;;;3.73;3.43;;;;;;;;;;10373073;28;20052;-78
2022/07/08 22:10:53;;;;;;;3.20;2.90;;;;;;;;;;10385877;28;20350;-78
2022/07/08 22:15:54;;;;;;;3.65;3.15;;;;;;;;;;10372544;28;20062;-78
2022/07/08 22:20:56;;;;;;;4.50;3.40;;;;;;;;;;10398233;28;20053;-82
2022/07/08 22:25:56;;;;;;;6.05;3.30;;;;;;;;;;10408137;28;20050;-82
2022/07/08 22:30:57;;;;;;;3.78;2.70;;;;;;;;;;10420225;28;20053;-80
2022/07/08 22:35:57;;;;;;;5.90;2.72;;;;;;;;;;10414517;28;20049;-81
2022/07/08 22:41:01;;;;;;;3.03;2.50;;;;;;;;;;10410765;28;20034;-81
2022/07/08 22:46:02;;;;;;;4.77;2.70;;;;;;;;;;10421543;28;20049;-81
2022/07/08 22:51:04;;;;;;;3.63;2.67;;;;;;;;;;10373653;28;20102;-79
2022/07/08 22:56:04;;;;;;;9.57;3.10;;;;;;;;;;10385345;28;20052;-78
2022/07/08 23:01:06;;;;;;;4.35;2.50;;;;;;;;;;10380090;28;20042;-82
2022/07/08 23:06:08;;;;;;;4.13;2.67;;;;;;;;;;10362517;28;20045;-78
2022/07/08 23:11:09;;;;;;;3.83;2.67;;;;;;;;;;10393796;28;20113;-79
2022/07/08 23:16:10;;;;;;;4.90;2.20;;;;;;;;;;10404493;28;20053;-79
2022/07/08 23:21:13;;;;;;;6.22;2.13;;;;;;;;;;10367698;28;20049;-80
2022/07/08 23:26:14;;;;;;;2.33;2.10;;;;;;;;;;10402992;28;20096;-80
2022/07/08 23:31:14;;;;;;;4.38;2.10;;;;;;;;;;10392688;28;20057;-79
2022/07/08 23:36:17;;;;;;;3.08;2.05;;;;;;;;;;10406527;28;20056;-80
2022/07/08 23:41:21;;;;;;;2.83;2.20;;;;;;;;;;10392267;28;20047;-80
2022/07/08 23:46:22;;;;;;;3.42;2.30;;;;;;;;;;10389415;28;20034;-81
2022/07/08 23:51:25;;;;;;;5.65;2.25;;;;;;;;;;10415450;28;20042;-82
2022/07/08 23:57:11;;;;;;;2.87;1.97;;;;;;;;;;10402504;28;20053;-82
